Quick Links (Output Below):   Max & Min Temps   /   Climate Reports   /   Zone Forecasts
River Forecasts   /   Forestry Forecasts   /   Aviation Forecasts   /   Radars   /   Features

Terminal Aerodrome Forecast (Fayetteville)

Pick a Site:
Arkadelphia | El Dorado | Fayetteville | Fort Smith | Harrison | Highfill | Hot Springs | Jonesboro
Little Rock | Monticello | Mountain Home | Pine Bluff | Texarkana
 Forecast 

KFYV 231120Z 2312/2412 00000KT P6SM SKC
     FM231500 16012KT P6SM FEW250
     FM240000 15006KT P6SM BKN250=


 Latest METARs (Observations) 
How to Decode METARs
13Z KFYV 231253Z 00000KT 10SM CLR 08/06 A3000 RMK AO2 SLP154
         T00780056
         
12Z KFYV 231153Z 00000KT 10SM CLR 05/04 A2998 RMK AO2 SLP149 T00500044
         10078 20039 55001
         
11Z KFYV 231053Z 00000KT 10SM CLR 05/04 A2997 RMK AO2 SLP145
         T00500044
         
10Z KFYV 230953Z AUTO 00000KT 10SM CLR 06/05 A2998 RMK AO2 SLP149
         T00560050
         
09Z KFYV 230853Z AUTO 00000KT 10SM CLR 06/05 A2999 RMK AO2 SLP150
         T00560050 58005
         
08Z KFYV 230753Z AUTO 00000KT 10SM CLR 06/05 A2999 RMK AO2 SLP149
         T00610050
         
07Z KFYV 230653Z AUTO 00000KT 10SM CLR 06/05 A3000 RMK AO2 SLP155
         T00610050
         
06Z KFYV 230553Z AUTO 00000KT 10SM CLR 08/06 A3000 RMK AO2 SLP154
         T00830056 10211 20067 402280067 50001
         
05Z KFYV 230453Z AUTO 20003KT 10SM CLR 07/06 A3001 RMK AO2 SLP157
         T00670061
         
04Z KFYV 230353Z AUTO 00000KT 10SM CLR 09/07 A3001 RMK AO2 SLP158
         T00890067
         
***** Today's Observations (Above) *****


Back to Main Page
http://www.srh.noaa.gov/lzk/qfcst.php

USA.gov is the U.S. government's official web portal to all federal, state and local government web resources and services.